Terminal Aerodrome Forecast
Issued by NWS Cleveland, OH

Home | Current Version | Previous Version | Text Only | Print | Product List | Glossary Off
Versions: 1 2 3 4 5 6 7 8 9 10 11 12 13 14 15 16 17 18 19 20 21 22 23

000
FTUS41 KCLE 261100
TAFMFD
TAF
KMFD 261131Z 2612/2712 18007KT P6SM BKN150
     FM261300 20008KT P6SM SCT050 BKN120
     FM261900 22012KT P6SM BKN050
      TEMPO 2621/2624 3SM TSRA OVC025CB
     FM270100 21008KT P6SM VCTS OVC040CB=

USA.gov is the U.S. government's official web portal to all federal, state and local government web resources and services.